Celik 1 — 9HKY9 — position and weather

sailwx.info

Track history (hours):
 
Tides and Currents Weather Stations Pressure Air Temp Water Temp Dewpoint Dewpoint Depression Visibility Wind Speed Wind Dir Waves Ship Positions

Celik 1

Last reported at 2017-Apr-24 02:16 UTC. Time now 2017-Apr-29 19:33 UTC.
Position N 46°32' E 030°57'.

Length 121 m; draft 4.5 m.

Type: Cargo ship. MMSI: 249114000.

Date/timePositionNaut miles runAvg speedWind from/ knotsBaromVisibWave heightAir tempDewpointWater temp
2017-Apr-24 02:16N 46°32' E 030°57'2 7.0
2017-Apr-24 02:00N 46°30' E 030°57'3 6.8
2017-Apr-24 01:30N 46°27' E 030°57'4 7.4
2017-Apr-24 00:59N 46°23' E 030°58'338 7.7
2017-Apr-22 05:04N 40°56' E 028°59'1 9.7
2017-Apr-22 05:00N 40°56' E 028°58'4 8.8
2017-Apr-22 04:30N 40°52' E 028°54'  
2017-Apr-17 06:40N 40°55' E 028°47'4 9.7
2017-Apr-17 06:18N 40°56' E 028°52'3 8.9
2017-Apr-17 05:59N 40°58' E 028°55'0 0.1
2017-Apr-17 03:58N 40°58' E 028°55'0 0.0
2017-Apr-17 03:22N 40°58' E 028°55'0 0.2
2017-Apr-17 02:57N 40°58' E 028°55'2 4.2
2017-Apr-17 02:30N 40°58' E 028°57'  
Track history (hours):
 
Tides and Currents Weather Stations Pressure Air Temp Water Temp Dewpoint Dewpoint Depression Visibility Wind Speed Wind Dir Waves Ship Positions

Celik 1

Last reported at 2017-Apr-24 02:16 UTC. Time now 2017-Apr-29 19:33 UTC.
Position N 46°32' E 030°57'.

Length 121 m; draft 4.5 m.

Type: Cargo ship. MMSI: 249114000.

Date/timePositionNaut miles runAvg speedWind from/ knotsBaromVisibWave heightAir tempDewpointWater temp
2017-Apr-24 02:16N 46°32' E 030°57'2 7.0
2017-Apr-24 02:00N 46°30' E 030°57'3 6.8
2017-Apr-24 01:30N 46°27' E 030°57'4 7.4
2017-Apr-24 00:59N 46°23' E 030°58'338 7.7
2017-Apr-22 05:04N 40°56' E 028°59'1 9.7
2017-Apr-22 05:00N 40°56' E 028°58'4 8.8
2017-Apr-22 04:30N 40°52' E 028°54'  
2017-Apr-17 06:40N 40°55' E 028°47'4 9.7
2017-Apr-17 06:18N 40°56' E 028°52'3 8.9
2017-Apr-17 05:59N 40°58' E 028°55'0 0.1
2017-Apr-17 03:58N 40°58' E 028°55'0 0.0
2017-Apr-17 03:22N 40°58' E 028°55'0 0.2
2017-Apr-17 02:57N 40°58' E 028°55'2 4.2
2017-Apr-17 02:30N 40°58' E 028°57'  

Dump ship's entire track history